createdAt,value
2023-05-13T00:00:40.012Z,85.99
2023-05-13T00:01:41.375Z,85.96
2023-05-13T00:02:39.699Z,85.89
2023-05-13T00:03:40.007Z,85.87
2023-05-13T00:04:39.331Z,85.88
2023-05-13T00:05:39.160Z,85.89
2023-05-13T00:06:39.302Z,85.87
2023-05-13T00:07:39.448Z,85.96
2023-05-13T00:08:39.523Z,86.02
2023-05-13T00:09:39.789Z,86.05
2023-05-13T00:10:39.939Z,86.12
2023-05-13T00:11:39.939Z,86.18
2023-05-13T00:12:40.013Z,86.19
2023-05-13T00:13:38.983Z,86.18
2023-05-13T00:14:38.692Z,86.15
2023-05-13T00:15:39.720Z,86.09
2023-05-13T00:16:39.842Z,86.07
2023-05-13T00:17:40.021Z,86.05
2023-05-13T00:18:39.852Z,86.05
2023-05-13T00:19:40.206Z,86.14
2023-05-13T00:20:39.452Z,86.13
2023-05-13T00:21:39.620Z,86.11
2023-05-13T00:22:39.844Z,86.12
2023-05-13T00:23:39.811Z,86.15
2023-05-13T00:24:39.630Z,86.15
2023-05-13T00:25:39.779Z,86.19
2023-05-13T00:26:39.711Z,86.22
2023-05-13T00:27:39.566Z,86.28
2023-05-13T00:28:39.477Z,86.30
2023-05-13T00:29:39.461Z,86.35
2023-05-13T00:30:40.084Z,86.44
2023-05-13T00:31:39.335Z,86.53
2023-05-13T00:32:39.390Z,86.51
2023-05-13T00:33:39.337Z,86.37
2023-05-13T00:34:39.120Z,86.34
2023-05-13T00:35:39.232Z,86.32
2023-05-13T00:36:39.120Z,86.33
2023-05-13T00:37:38.714Z,86.35
2023-05-13T00:38:39.568Z,86.39
2023-05-13T00:39:39.505Z,86.37
2023-05-13T00:40:39.994Z,86.33
2023-05-13T00:41:38.999Z,86.30
2023-05-13T00:42:39.280Z,86.37
2023-05-13T00:43:39.332Z,86.41
2023-05-13T00:44:39.253Z,86.38
2023-05-13T00:45:39.337Z,86.33
2023-05-13T00:46:39.518Z,86.37
2023-05-13T00:47:39.905Z,86.34
2023-05-13T00:48:39.759Z,86.38
2023-05-13T00:49:39.855Z,86.5
2023-05-13T00:50:40.305Z,86.46
2023-05-13T00:51:39.598Z,86.45
2023-05-13T00:52:39.486Z,86.51
2023-05-13T00:53:39.642Z,86.55
2023-05-13T00:54:39.859Z,86.59
2023-05-13T00:55:40.150Z,86.64
2023-05-13T00:56:39.202Z,86.58
2023-05-13T00:57:39.289Z,86.68
2023-05-13T00:58:38.918Z,86.74
2023-05-13T00:59:40.116Z,86.72
2023-05-13T01:00:40.543Z,86.79
2023-05-13T01:01:44.894Z,86.77
2023-05-13T01:02:40.147Z,86.71
2023-05-13T01:03:39.126Z,86.68
2023-05-13T01:04:39.104Z,86.73
2023-05-13T01:05:39.163Z,86.80
2023-05-13T01:06:38.934Z,86.86
2023-05-13T01:07:39.854Z,86.93
2023-05-13T01:08:39.650Z,87
2023-05-13T01:09:53.808Z,87.05
2023-05-13T01:10:39.975Z,87.02
2023-05-13T01:11:39.755Z,87.11
2023-05-13T01:12:39.687Z,87.19
2023-05-13T01:13:39.982Z,87.19
2023-05-13T01:14:39.399Z,87.16
2023-05-13T01:15:53.990Z,87.23
2023-05-13T01:16:39.223Z,87.33
2023-05-13T01:17:39.445Z,87.34
2023-05-13T01:18:39.976Z,87.42
2023-05-13T01:19:53.328Z,87.51
2023-05-13T01:20:39.777Z,87.43
2023-05-13T01:21:39.943Z,87.40
2023-05-13T01:22:39.974Z,87.41
2023-05-13T01:23:39.617Z,87.31
2023-05-13T01:24:39.540Z,87.36
2023-05-13T01:25:39.486Z,87.38
2023-05-13T01:26:39.276Z,87.38
2023-05-13T01:27:38.819Z,87.40
2023-05-13T01:28:39.893Z,87.42
2023-05-13T01:29:39.508Z,87.46
2023-05-13T01:30:39.440Z,87.54
2023-05-13T01:31:39.658Z,87.51
2023-05-13T01:32:39.700Z,87.62
2023-05-13T01:33:39.816Z,87.61
2023-05-13T01:34:39.627Z,87.58
2023-05-13T01:35:39.816Z,87.59
2023-05-13T01:36:39.677Z,87.62
2023-05-13T01:37:39.520Z,87.69
2023-05-13T01:38:39.443Z,87.76
2023-05-13T01:39:39.026Z,87.76
2023-05-13T01:40:48.150Z,87.73
2023-05-13T01:41:39.572Z,87.73
2023-05-13T01:42:39.322Z,87.73
2023-05-13T01:43:39.236Z,87.66
2023-05-13T01:44:39.318Z,87.69
2023-05-13T01:45:39.563Z,87.67
2023-05-13T01:46:39.663Z,87.71
2023-05-13T01:47:39.512Z,87.72
2023-05-13T01:48:39.646Z,87.74
2023-05-13T01:49:39.871Z,87.70
2023-05-13T01:50:40.244Z,87.75
2023-05-13T01:51:39.594Z,87.72
2023-05-13T01:52:39.666Z,87.65
2023-05-13T01:53:40.222Z,87.65
2023-05-13T01:54:38.976Z,87.66
2023-05-13T01:55:39.047Z,87.65
2023-05-13T01:56:39.167Z,87.55
2023-05-13T01:57:39.224Z,87.56
2023-05-13T01:58:38.915Z,87.50
2023-05-13T01:59:40.036Z,87.44
2023-05-13T02:00:40.131Z,87.44
2023-05-13T02:01:39.284Z,87.47
2023-05-13T02:02:39.560Z,87.41
2023-05-13T02:03:39.967Z,87.41
2023-05-13T02:04:38.978Z,87.44
2023-05-13T02:05:39.287Z,87.50
2023-05-13T02:06:39.114Z,87.56
2023-05-13T02:07:38.784Z,87.51
2023-05-13T02:08:39.846Z,87.47
2023-05-13T02:09:40.002Z,87.43
2023-05-13T02:10:39.657Z,87.43
2023-05-13T02:11:39.780Z,87.5
2023-05-13T02:12:39.587Z,87.47
2023-05-13T02:13:39.430Z,87.58
2023-05-13T02:14:39.077Z,87.61
2023-05-13T02:15:39.252Z,87.51
2023-05-13T02:16:39.000Z,87.55
2023-05-13T02:17:38.997Z,87.58
2023-05-13T02:18:38.979Z,87.59
2023-05-13T02:19:38.842Z,87.66
2023-05-13T02:20:39.981Z,87.65
2023-05-13T02:21:39.111Z,87.59
2023-05-13T02:22:39.144Z,87.61
2023-05-13T02:23:38.903Z,87.64
2023-05-13T02:24:39.868Z,87.60
2023-05-13T02:25:40.165Z,87.62
2023-05-13T02:26:39.080Z,87.65
2023-05-13T02:27:39.027Z,87.65
2023-05-13T02:28:39.030Z,87.67
2023-05-13T02:29:39.365Z,87.70
2023-05-13T02:30:39.549Z,87.71
2023-05-13T02:31:39.489Z,87.66
2023-05-13T02:32:39.377Z,87.63
2023-05-13T02:33:39.493Z,87.61
2023-05-13T02:34:39.146Z,87.61
2023-05-13T02:35:39.114Z,87.58
2023-05-13T02:36:39.137Z,87.56
2023-05-13T02:37:39.333Z,87.58
2023-05-13T02:38:39.443Z,87.59
2023-05-13T02:39:39.537Z,87.58
2023-05-13T02:40:39.695Z,87.58
2023-05-13T02:41:39.860Z,87.56
2023-05-13T02:42:40.028Z,87.58
2023-05-13T02:43:39.415Z,87.61
2023-05-13T02:44:39.460Z,87.64
2023-05-13T02:45:39.689Z,87.67
2023-05-13T02:46:39.883Z,87.67
2023-05-13T02:47:40.415Z,87.67
2023-05-13T02:48:39.204Z,87.66
2023-05-13T02:49:39.276Z,87.63
2023-05-13T02:50:39.592Z,87.59
2023-05-13T02:51:39.371Z,87.62
2023-05-13T02:52:39.173Z,87.57
2023-05-13T02:53:39.116Z,87.50
2023-05-13T02:54:39.295Z,87.44
2023-05-13T02:55:39.453Z,87.39
2023-05-13T02:56:39.447Z,87.38
2023-05-13T02:57:39.329Z,87.40
2023-05-13T02:58:39.085Z,87.40
2023-05-13T02:59:39.064Z,87.34
2023-05-13T03:00:40.026Z,87.36
2023-05-13T03:01:39.200Z,87.40
2023-05-13T03:02:38.954Z,87.35
2023-05-13T03:03:39.324Z,87.44
2023-05-13T03:04:39.238Z,87.51
2023-05-13T03:05:39.428Z,87.51
2023-05-13T03:06:39.455Z,87.48
2023-05-13T03:07:39.217Z,87.53
2023-05-13T03:08:39.080Z,87.50
2023-05-13T03:09:39.052Z,87.40
2023-05-13T03:10:39.522Z,87.44
2023-05-13T03:11:39.320Z,87.41
2023-05-13T03:12:38.963Z,87.49
2023-05-13T03:13:39.783Z,87.51
2023-05-13T03:14:39.789Z,87.53
2023-05-13T03:15:41.523Z,87.51
2023-05-13T03:16:40.032Z,87.53
2023-05-13T03:17:39.572Z,87.57
2023-05-13T03:18:39.750Z,87.51
2023-05-13T03:19:39.541Z,87.51
2023-05-13T03:20:39.827Z,87.47
2023-05-13T03:21:39.851Z,87.42
2023-05-13T03:22:39.674Z,87.38
2023-05-13T03:23:39.266Z,87.43
2023-05-13T03:24:39.163Z,87.42
2023-05-13T03:25:39.113Z,87.43
2023-05-13T03:26:39.152Z,87.42
2023-05-13T03:27:39.008Z,87.47
2023-05-13T03:28:38.985Z,87.57
2023-05-13T03:29:39.139Z,87.55
2023-05-13T03:30:39.264Z,87.56
2023-05-13T03:31:38.990Z,87.51
2023-05-13T03:32:38.983Z,87.41
2023-05-13T03:33:38.869Z,87.37
2023-05-13T03:34:39.702Z,87.26
2023-05-13T03:35:39.868Z,87.26
2023-05-13T03:36:39.895Z,87.25
2023-05-13T03:37:39.857Z,87.23
2023-05-13T03:38:40.088Z,87.25
2023-05-13T03:39:39.096Z,87.25
2023-05-13T03:40:39.450Z,87.29
2023-05-13T03:41:39.383Z,87.32
2023-05-13T03:42:39.287Z,87.33
2023-05-13T03:43:39.264Z,87.35
2023-05-13T03:44:39.052Z,87.40
2023-05-13T03:45:39.226Z,87.43
2023-05-13T03:46:39.521Z,87.38
2023-05-13T03:47:39.753Z,87.40
2023-05-13T03:48:39.989Z,87.46
2023-05-13T03:49:39.038Z,87.46
2023-05-13T03:50:39.737Z,87.45
2023-05-13T03:51:39.913Z,87.44
2023-05-13T03:52:40.013Z,87.34
2023-05-13T03:53:39.330Z,87.23
2023-05-13T03:54:39.410Z,87.19
2023-05-13T03:55:39.659Z,87.19
2023-05-13T03:56:39.839Z,87.24
2023-05-13T03:57:40.118Z,87.25
2023-05-13T03:58:39.217Z,87.30
2023-05-13T03:59:39.291Z,87.31
2023-05-13T04:00:40.531Z,87.30
2023-05-13T04:01:39.779Z,87.33
2023-05-13T04:02:40.559Z,87.38
2023-05-13T04:03:40.394Z,87.41
2023-05-13T04:04:39.887Z,87.42
2023-05-13T04:05:40.327Z,87.53
2023-05-13T04:06:39.509Z,87.60
2023-05-13T04:07:39.927Z,87.64
2023-05-13T04:08:40.363Z,87.59
2023-05-13T04:09:39.748Z,87.58
2023-05-13T04:10:39.943Z,87.61
2023-05-13T04:11:40.334Z,87.52
2023-05-13T04:12:39.560Z,87.49
2023-05-13T04:13:39.725Z,87.54
2023-05-13T04:14:39.782Z,87.44
2023-05-13T04:15:40.454Z,87.41
2023-05-13T04:16:40.059Z,87.37
2023-05-13T04:17:39.508Z,87.41
2023-05-13T04:18:39.806Z,87.43
2023-05-13T04:19:39.754Z,87.42
2023-05-13T04:21:11.315Z,87.42
2023-05-13T04:21:43.867Z,87.53
2023-05-13T04:22:40.215Z,87.55
2023-05-13T04:23:39.436Z,87.56
2023-05-13T04:24:39.717Z,87.47
2023-05-13T04:25:40.071Z,87.46
2023-05-13T04:26:39.353Z,87.43
2023-05-13T04:27:39.488Z,87.46
2023-05-13T04:28:39.564Z,87.51
2023-05-13T04:29:39.437Z,87.68
2023-05-13T04:30:39.489Z,87.81
2023-05-13T04:31:39.586Z,87.84
2023-05-13T04:32:40.152Z,87.80
2023-05-13T04:33:39.448Z,87.76
2023-05-13T04:34:39.754Z,87.69
2023-05-13T04:35:39.995Z,87.72
2023-05-13T04:36:39.521Z,87.66
2023-05-13T04:37:39.771Z,87.56
2023-05-13T04:38:39.885Z,87.62
2023-05-13T04:39:40.020Z,87.72
2023-05-13T04:40:39.956Z,87.82
2023-05-13T04:41:40.371Z,87.81
2023-05-13T04:42:39.845Z,87.80
2023-05-13T04:43:40.215Z,87.80
2023-05-13T04:44:39.950Z,87.82
2023-05-13T04:45:40.422Z,87.85
2023-05-13T04:46:39.927Z,87.88
2023-05-13T04:47:40.534Z,87.80
2023-05-13T04:48:39.663Z,87.93
2023-05-13T04:49:40.802Z,87.89
2023-05-13T04:50:40.805Z,87.95
2023-05-13T04:51:40.967Z,88.05
2023-05-13T04:53:39.730Z,88.08
2023-05-13T04:54:40.345Z,88.05
2023-05-13T04:55:43.322Z,88.05
2023-05-13T04:56:39.760Z,88.09
2023-05-13T04:57:40.098Z,88.14
2023-05-13T04:58:39.415Z,88.19
2023-05-13T04:59:39.979Z,88.22
2023-05-13T05:01:40.204Z,88.33
2023-05-13T05:02:40.338Z,88.34
2023-05-13T05:03:39.709Z,88.39
2023-05-13T05:04:40.064Z,88.43
2023-05-13T05:05:39.597Z,88.44
2023-05-13T05:06:40.101Z,88.37
2023-05-13T05:07:39.933Z,88.41
2023-05-13T05:08:40.239Z,88.47
2023-05-13T05:09:39.485Z,88.52
2023-05-13T05:10:39.690Z,88.60
2023-05-13T05:11:39.893Z,88.62
2023-05-13T05:12:40.149Z,88.62
2023-05-13T05:13:39.491Z,88.61
2023-05-13T05:14:40.104Z,88.75
2023-05-13T05:15:39.864Z,88.81
2023-05-13T05:16:40.193Z,88.78
2023-05-13T05:17:39.667Z,88.87
2023-05-13T05:18:40.063Z,88.81
2023-05-13T05:19:39.741Z,88.84
2023-05-13T05:20:40.273Z,88.86
2023-05-13T05:21:39.663Z,88.90
2023-05-13T05:22:39.749Z,88.88
2023-05-13T05:23:39.747Z,88.90
2023-05-13T05:24:39.962Z,88.96
2023-05-13T05:25:40.204Z,89.02
2023-05-13T05:26:41.113Z,89.04
2023-05-13T05:27:39.280Z,89.06
2023-05-13T05:28:39.910Z,89.05
2023-05-13T05:29:39.808Z,89.08
2023-05-13T05:30:40.616Z,89.13
2023-05-13T05:31:39.924Z,89.18
2023-05-13T05:32:40.677Z,89.19
2023-05-13T05:33:40.199Z,89.22
2023-05-13T05:34:39.855Z,89.20
2023-05-13T05:35:39.910Z,89.19
2023-05-13T05:36:40.306Z,89.24
2023-05-13T05:37:39.519Z,89.37
2023-05-13T05:38:39.758Z,89.39
2023-05-13T05:39:39.863Z,89.44
2023-05-13T05:40:40.208Z,89.54
2023-05-13T05:41:39.479Z,89.51
2023-05-13T05:42:39.972Z,89.45
2023-05-13T05:43:40.096Z,89.32
2023-05-13T05:44:39.167Z,89.16
2023-05-13T05:45:39.399Z,89.00
2023-05-13T05:46:39.841Z,88.87
2023-05-13T05:47:40.422Z,88.95
2023-05-13T05:48:39.517Z,88.98
2023-05-13T05:49:39.928Z,88.82
2023-05-13T05:50:40.499Z,88.87
2023-05-13T05:51:40.058Z,88.95
2023-05-13T05:52:39.527Z,88.82
2023-05-13T05:53:39.981Z,88.69
2023-05-13T05:54:39.287Z,88.51
2023-05-13T05:55:47.588Z,88.32
2023-05-13T05:56:40.003Z,88.28
2023-05-13T05:57:39.533Z,88.27
2023-05-13T05:58:39.785Z,88.32
2023-05-13T05:59:40.156Z,88.29
2023-05-13T06:00:40.809Z,88.23
2023-05-13T06:01:39.992Z,88.22
2023-05-13T06:02:39.403Z,88.16
2023-05-13T06:03:40.028Z,88.16
2023-05-13T06:04:39.381Z,88.27
2023-05-13T06:05:39.982Z,88.19
2023-05-13T06:06:39.755Z,88.13
2023-05-13T06:07:40.033Z,88.12
2023-05-13T06:08:39.681Z,88.11
2023-05-13T06:09:40.106Z,88.14
2023-05-13T06:10:39.855Z,88.07
2023-05-13T06:11:40.078Z,88.07
2023-05-13T06:12:39.323Z,88.05
2023-05-13T06:13:39.809Z,88.14
2023-05-13T06:14:40.348Z,88.11
2023-05-13T06:15:39.709Z,87.97
2023-05-13T06:16:40.133Z,87.80
2023-05-13T06:17:39.624Z,87.70
2023-05-13T06:18:40.190Z,87.77
2023-05-13T06:19:44.636Z,87.73
2023-05-13T06:20:39.952Z,87.79
2023-05-13T06:21:45.034Z,87.76
2023-05-13T06:22:39.226Z,87.80
2023-05-13T06:23:39.538Z,87.71
2023-05-13T06:24:39.642Z,87.58
2023-05-13T06:25:40.160Z,87.55
2023-05-13T06:26:39.475Z,87.47
2023-05-13T06:27:39.566Z,87.39
2023-05-13T06:28:39.810Z,87.37
2023-05-13T06:29:39.957Z,87.31
2023-05-13T06:30:40.639Z,87.27
2023-05-13T06:31:39.685Z,87.22
2023-05-13T06:32:44.957Z,87.25
2023-05-13T06:33:40.157Z,87.24
2023-05-13T06:34:39.537Z,87.21
2023-05-13T06:35:39.806Z,87.22
2023-05-13T06:36:40.057Z,87.15
2023-05-13T06:37:39.357Z,87.18
2023-05-13T06:38:39.726Z,87.30
2023-05-13T06:39:39.927Z,87.24
2023-05-13T06:40:40.443Z,87.18
2023-05-13T06:41:39.494Z,87.32
2023-05-13T06:42:39.913Z,87.57
2023-05-13T06:43:40.118Z,87.57
2023-05-13T06:44:39.406Z,87.36
2023-05-13T06:45:39.722Z,87.32
2023-05-13T06:46:40.280Z,87.25
2023-05-13T06:47:39.823Z,87.30
2023-05-13T06:48:40.233Z,87.33
2023-05-13T06:49:39.649Z,87.30
2023-05-13T06:50:40.379Z,87.24
2023-05-13T06:51:39.524Z,87.19
2023-05-13T06:52:41.873Z,87.30
2023-05-13T06:53:39.474Z,87.23
2023-05-13T06:54:39.946Z,87.07
2023-05-13T06:55:40.552Z,87.05
2023-05-13T06:56:39.865Z,86.99
2023-05-13T06:57:54.672Z,86.97
2023-05-13T06:58:39.841Z,86.89
2023-05-13T06:59:40.442Z,86.76
2023-05-13T07:00:40.707Z,86.50
2023-05-13T07:01:59.192Z,86.24
2023-05-13T07:02:39.839Z,86.01
2023-05-13T07:03:40.158Z,85.95
2023-05-13T07:04:39.974Z,85.96
2023-05-13T07:05:40.474Z,85.81
2023-05-13T07:06:39.881Z,85.59
2023-05-13T07:07:39.977Z,85.47
2023-05-13T07:08:39.746Z,85.41
2023-05-13T07:09:40.112Z,85.28
2023-05-13T07:10:40.162Z,85.23
2023-05-13T07:11:39.909Z,85.14
2023-05-13T07:12:40.346Z,85.15
2023-05-13T07:13:40.148Z,85.08
2023-05-13T07:14:39.728Z,84.93
2023-05-13T07:15:40.120Z,84.83
2023-05-13T07:16:39.755Z,84.76
2023-05-13T07:17:40.484Z,84.56
2023-05-13T07:18:40.093Z,84.47
2023-05-13T07:19:39.692Z,84.34
2023-05-13T07:20:40.238Z,84.25
2023-05-13T07:21:39.793Z,84.06
2023-05-13T07:22:39.825Z,83.99
2023-05-13T07:23:39.960Z,84.01
2023-05-13T07:24:40.271Z,84.03
2023-05-13T07:25:39.893Z,83.98
2023-05-13T07:26:40.006Z,84.00
2023-05-13T07:27:39.535Z,84.11
2023-05-13T07:28:39.980Z,84.17
2023-05-13T07:29:41.268Z,84.35
2023-05-13T07:30:40.575Z,84.39
2023-05-13T07:31:40.210Z,84.40
2023-05-13T07:32:39.758Z,84.55
2023-05-13T07:33:39.632Z,84.60
2023-05-13T07:34:39.689Z,84.67
2023-05-13T07:35:40.062Z,84.68
2023-05-13T07:36:39.406Z,84.69
2023-05-13T07:37:39.644Z,84.61
2023-05-13T07:38:39.857Z,84.62
2023-05-13T07:39:40.306Z,84.51
2023-05-13T07:40:39.953Z,84.27
2023-05-13T07:41:40.379Z,84.12
2023-05-13T07:42:39.605Z,84.15
2023-05-13T07:43:39.987Z,84.21
2023-05-13T07:44:39.794Z,84.34
2023-05-13T07:45:40.377Z,84.38
2023-05-13T07:46:40.453Z,84.30
2023-05-13T07:47:41.048Z,84.09
2023-05-13T07:48:40.380Z,84.18
2023-05-13T07:49:39.950Z,84.17
2023-05-13T07:50:40.780Z,84.21
2023-05-13T07:51:40.243Z,84.29
2023-05-13T07:52:39.639Z,84.35
2023-05-13T07:53:40.316Z,84.32
2023-05-13T07:54:39.848Z,84.36
2023-05-13T07:55:40.342Z,84.34
2023-05-13T07:56:39.980Z,84.49
2023-05-13T07:57:39.441Z,84.48
2023-05-13T07:58:40.148Z,84.41
2023-05-13T07:59:40.180Z,84.29
2023-05-13T08:00:40.975Z,84.27
2023-05-13T08:01:39.835Z,84.27
2023-05-13T08:02:40.507Z,84.27
2023-05-13T08:03:40.606Z,84.18
2023-05-13T08:04:40.561Z,84.11
2023-05-13T08:05:40.105Z,84.15
2023-05-13T08:06:44.891Z,84.16
2023-05-13T08:07:40.438Z,84.21
2023-05-13T08:08:39.914Z,84.23
2023-05-13T08:09:40.292Z,84.26
2023-05-13T08:10:40.070Z,84.26
2023-05-13T08:11:39.622Z,84.31
2023-05-13T08:12:39.860Z,84.38
2023-05-13T08:13:40.153Z,84.59
2023-05-13T08:14:40.048Z,84.63
2023-05-13T08:15:40.273Z,84.75
2023-05-13T08:16:45.263Z,84.71
2023-05-13T08:17:40.226Z,84.60
2023-05-13T08:18:39.897Z,84.67
2023-05-13T08:19:39.716Z,84.66
2023-05-13T08:20:40.186Z,84.77
2023-05-13T08:21:39.421Z,84.79
2023-05-13T08:22:39.613Z,84.80
2023-05-13T08:23:56.191Z,84.48
2023-05-13T08:24:39.505Z,84.30
2023-05-13T08:25:39.921Z,84.40
2023-05-13T08:26:39.932Z,84.55
2023-05-13T08:27:40.187Z,84.08
2023-05-13T08:28:39.208Z,83.35
2023-05-13T08:29:39.290Z,83.23
2023-05-13T08:30:39.938Z,82.84
2023-05-13T08:31:40.170Z,82.59
2023-05-13T08:32:39.522Z,82.58
2023-05-13T08:33:39.931Z,82.87
2023-05-13T08:34:39.992Z,83.13
2023-05-13T08:35:39.982Z,83.23
2023-05-13T08:36:39.431Z,83.21
2023-05-13T08:37:39.860Z,83.18
2023-05-13T08:38:40.339Z,83.12
2023-05-13T08:39:39.608Z,82.96
2023-05-13T08:40:40.121Z,82.77
2023-05-13T08:41:39.877Z,82.69
2023-05-13T08:42:44.917Z,82.75
2023-05-13T08:43:40.099Z,82.45
2023-05-13T08:44:44.717Z,81.73
2023-05-13T08:45:40.506Z,81.41
2023-05-13T08:46:40.339Z,81.30
2023-05-13T08:47:39.881Z,81.38
2023-05-13T08:48:40.079Z,81.54
2023-05-13T08:49:40.238Z,81.72
2023-05-13T08:50:39.964Z,81.52
2023-05-13T08:51:40.302Z,81.66
2023-05-13T08:52:40.193Z,81.42
2023-05-13T08:53:40.191Z,81.58
2023-05-13T08:54:44.854Z,81.31
2023-05-13T08:55:40.543Z,81.26
2023-05-13T08:56:40.308Z,81.19
2023-05-13T08:57:40.208Z,81.18
2023-05-13T08:58:39.974Z,81.19
2023-05-13T08:59:40.626Z,81.10
2023-05-13T09:00:49.173Z,80.89
2023-05-13T09:01:39.932Z,80.86
2023-05-13T09:02:48.454Z,80.83
2023-05-13T09:03:39.651Z,80.72
2023-05-13T09:04:39.878Z,80.59
2023-05-13T09:05:41.166Z,80.62
2023-05-13T09:06:39.752Z,80.58
2023-05-13T09:07:40.278Z,80.19
2023-05-13T09:08:54.190Z,80.13
2023-05-13T09:09:39.733Z,79.76
2023-05-13T09:10:40.065Z,79.32
2023-05-13T09:11:39.273Z,79.26
2023-05-13T09:12:39.479Z,79.08
2023-05-13T09:13:39.933Z,78.70
2023-05-13T09:14:40.062Z,78.66
2023-05-13T09:15:40.617Z,78.48
2023-05-13T09:16:40.104Z,78.03
2023-05-13T09:17:39.891Z,78.13
2023-05-13T09:18:41.145Z,78.12
2023-05-13T09:19:40.143Z,78.27
2023-05-13T09:20:39.703Z,78.31
2023-05-13T09:21:39.776Z,78.18
2023-05-13T09:22:40.062Z,77.75
2023-05-13T09:23:39.675Z,77.11
2023-05-13T09:24:40.418Z,76.18
2023-05-13T09:25:40.234Z,75.77
2023-05-13T09:26:39.944Z,75.53
2023-05-13T09:27:40.381Z,75.79
2023-05-13T09:28:39.935Z,75.77
2023-05-13T09:29:40.179Z,75.78
2023-05-13T09:30:40.315Z,75.89
2023-05-13T09:31:40.231Z,76.21
2023-05-13T09:32:39.825Z,76.63
2023-05-13T09:33:40.386Z,76.44
2023-05-13T09:34:39.844Z,76.42
2023-05-13T09:35:40.204Z,76.51
2023-05-13T09:36:40.136Z,76.94
2023-05-13T09:37:39.979Z,75.44
2023-05-13T09:38:39.749Z,75
2023-05-13T09:39:40.118Z,74.87
2023-05-13T09:40:40.678Z,74.79
2023-05-13T09:41:40.407Z,75.07
2023-05-13T09:42:40.277Z,75.30
2023-05-13T09:43:39.834Z,75.41
2023-05-13T09:44:40.492Z,75.44
2023-05-13T09:45:40.653Z,75.50
2023-05-13T09:46:40.540Z,75.30
2023-05-13T09:47:40.291Z,74.87
2023-05-13T09:48:39.969Z,74.69
2023-05-13T09:49:40.586Z,74.88
2023-05-13T09:50:40.494Z,75.23
2023-05-13T09:51:40.410Z,75.61
2023-05-13T09:52:39.973Z,75.77
2023-05-13T09:53:39.904Z,75.55
2023-05-13T09:54:40.498Z,75.35
2023-05-13T09:55:40.255Z,75.38
2023-05-13T09:56:40.645Z,75.22
2023-05-13T09:57:41.009Z,74.99
2023-05-13T09:58:40.072Z,75.12
2023-05-13T09:59:40.282Z,74.23
2023-05-13T10:00:49.143Z,73.69
2023-05-13T10:01:40.082Z,73.85
2023-05-13T10:02:39.914Z,73.62
2023-05-13T10:03:40.619Z,73.36
2023-05-13T10:04:40.138Z,73.62
2023-05-13T10:05:39.934Z,74.04
2023-05-13T10:06:40.479Z,73.87
2023-05-13T10:07:40.049Z,73.56
2023-05-13T10:08:40.047Z,73.64
2023-05-13T10:09:40.005Z,73.51
2023-05-13T10:10:40.280Z,73.52
2023-05-13T10:11:40.173Z,73.57
2023-05-13T10:12:39.783Z,73.66
2023-05-13T10:13:40.504Z,73.71
2023-05-13T10:14:40.047Z,73.41
2023-05-13T10:15:39.942Z,72.94
2023-05-13T10:16:40.444Z,72.94
2023-05-13T10:17:40.006Z,72.76
2023-05-13T10:18:40.124Z,71.94
2023-05-13T10:19:39.786Z,71.42
2023-05-13T10:20:40.355Z,71.30
2023-05-13T10:21:39.983Z,71.31
2023-05-13T10:22:39.640Z,70.89
2023-05-13T10:23:40.412Z,70.53
2023-05-13T10:24:40.431Z,70.25
2023-05-13T10:25:39.982Z,70.47
2023-05-13T10:26:39.718Z,70.81
2023-05-13T10:27:40.187Z,70.43
2023-05-13T10:28:39.700Z,69.61
2023-05-13T10:29:39.934Z,69.15
2023-05-13T10:30:40.897Z,69.29
2023-05-13T10:31:40.445Z,69.11
2023-05-13T10:32:39.688Z,69.05
2023-05-13T10:33:39.992Z,69.15
2023-05-13T10:34:39.465Z,69.74
2023-05-13T10:35:42.621Z,69.87
2023-05-13T10:36:39.801Z,70.47
2023-05-13T10:37:40.451Z,71.12
2023-05-13T10:38:40.291Z,71.11
2023-05-13T10:39:39.314Z,70.77
2023-05-13T10:40:40.030Z,68.72
2023-05-13T10:41:39.543Z,67.19
2023-05-13T10:42:39.846Z,67.20
2023-05-13T10:43:40.164Z,67.16
2023-05-13T10:44:39.717Z,66.62
2023-05-13T10:45:40.339Z,66.50
2023-05-13T10:46:39.835Z,67.26
2023-05-13T10:47:40.728Z,67.51
2023-05-13T10:48:40.302Z,67.37
2023-05-13T10:49:39.540Z,67.16
2023-05-13T10:50:40.666Z,67.06
2023-05-13T10:51:40.490Z,67.07
2023-05-13T10:52:40.313Z,66.31
2023-05-13T10:53:40.200Z,65.23
2023-05-13T10:54:40.170Z,64.89
2023-05-13T10:55:40.482Z,64.70
2023-05-13T10:56:40.258Z,64.84
2023-05-13T10:57:54.129Z,65.20
2023-05-13T10:58:39.704Z,65.53
2023-05-13T10:59:40.261Z,65.95
2023-05-13T11:00:41.302Z,66.40
2023-05-13T11:01:40.399Z,67.29
2023-05-13T11:02:40.085Z,68.75
2023-05-13T11:03:44.332Z,69.55
2023-05-13T11:04:40.170Z,70.15
2023-05-13T11:05:39.945Z,70.57
2023-05-13T11:06:40.147Z,70.91
2023-05-13T11:07:39.463Z,71.33
2023-05-13T11:08:40.303Z,71.41
2023-05-13T11:09:40.003Z,71.40
2023-05-13T11:10:39.800Z,71.5
2023-05-13T11:11:44.831Z,71.60
2023-05-13T11:12:40.073Z,71.70
2023-05-13T11:13:44.412Z,71.65
2023-05-13T11:14:39.832Z,71.50
2023-05-13T11:15:45.595Z,71.54
2023-05-13T11:16:40.004Z,71.31
2023-05-13T11:17:39.666Z,71
2023-05-13T11:18:40.485Z,70.97
2023-05-13T11:19:44.978Z,70.94
2023-05-13T11:20:51.665Z,71.15
2023-05-13T11:21:40.260Z,71.09
2023-05-13T11:22:40.093Z,71.06
2023-05-13T11:23:40.127Z,71.07
2023-05-13T11:24:40.122Z,71.00
2023-05-13T11:25:47.923Z,70.93
2023-05-13T11:26:40.515Z,70.64
2023-05-13T11:27:39.778Z,70.68
2023-05-13T11:28:40.332Z,70.83
2023-05-13T11:29:39.713Z,70.66
2023-05-13T11:30:40.249Z,70.50
2023-05-13T11:31:39.500Z,70.51
2023-05-13T11:32:39.949Z,70.49
2023-05-13T11:33:39.972Z,70.45
2023-05-13T11:34:40.470Z,70.62
2023-05-13T11:35:39.922Z,70.75
2023-05-13T11:36:40.413Z,70.90
2023-05-13T11:37:39.921Z,71.06
2023-05-13T11:38:40.291Z,71.27
2023-05-13T11:39:39.223Z,71.26
2023-05-13T11:40:40.111Z,71.33
2023-05-13T11:41:39.554Z,71.22
2023-05-13T11:42:39.606Z,71.13
2023-05-13T11:43:40.043Z,71.09
2023-05-13T11:44:39.711Z,71.13
2023-05-13T11:45:40.729Z,70.04
2023-05-13T11:46:40.777Z,68.30
2023-05-13T11:47:40.513Z,66.36
2023-05-13T11:48:40.268Z,64.30
2023-05-13T11:49:40.127Z,63.83
2023-05-13T11:50:40.187Z,63.71
2023-05-13T11:51:40.014Z,64.06
2023-05-13T11:52:39.888Z,63.91
2023-05-13T11:53:40.435Z,63.72
2023-05-13T11:54:40.109Z,63.75
2023-05-13T11:55:39.528Z,63.27
2023-05-13T11:56:39.998Z,62.92
2023-05-13T11:57:39.376Z,62.36
2023-05-13T11:58:39.805Z,62.25
2023-05-13T11:59:47.947Z,62.40
2023-05-13T12:00:40.607Z,62.44
2023-05-13T12:01:39.971Z,62.88
2023-05-13T12:02:41.211Z,63.15
2023-05-13T12:03:40.273Z,63.40
2023-05-13T12:04:39.904Z,63.59
2023-05-13T12:06:40.319Z,64.01
2023-05-13T12:07:39.831Z,64.11
2023-05-13T12:08:40.459Z,64.45
2023-05-13T12:09:40.466Z,65.04
2023-05-13T12:10:40.383Z,65.58
2023-05-13T12:11:39.846Z,66.25
2023-05-13T12:12:40.403Z,67.19
2023-05-13T12:13:40.009Z,68.36
2023-05-13T12:14:43.115Z,69.75
2023-05-13T12:15:40.828Z,70.87
2023-05-13T12:16:40.082Z,71.88
2023-05-13T12:17:40.029Z,72.52
2023-05-13T12:18:40.286Z,72.23
2023-05-13T12:20:40.289Z,71.80
2023-05-13T12:21:40.079Z,71.91
2023-05-13T12:22:39.577Z,72.79
2023-05-13T12:23:39.916Z,72.48
2023-05-13T12:24:40.220Z,72.44
2023-05-13T12:25:40.018Z,73.33
2023-05-13T12:26:40.080Z,73.84
2023-05-13T12:27:39.805Z,74.27
2023-05-13T12:28:40.639Z,75.26
2023-05-13T12:29:40.712Z,75.83
2023-05-13T12:30:40.617Z,75.93
2023-05-13T12:31:40.417Z,76.66
2023-05-13T12:32:39.759Z,77.15
2023-05-13T12:33:40.627Z,77.45
2023-05-13T12:34:39.899Z,77.93
2023-05-13T12:35:40.382Z,78.37
2023-05-13T12:36:40.134Z,78.54
2023-05-13T12:37:39.871Z,78.71
2023-05-13T12:38:40.578Z,78.76
2023-05-13T12:39:40.002Z,78.96
2023-05-13T12:40:39.568Z,79.14
2023-05-13T12:41:40.113Z,79.26
2023-05-13T12:42:39.855Z,79.69
2023-05-13T12:43:40.001Z,79.92
2023-05-13T12:44:39.850Z,80.06
2023-05-13T12:45:42.083Z,80.29
2023-05-13T12:46:39.875Z,80.44
2023-05-13T12:47:40.423Z,80.37
2023-05-13T12:48:39.676Z,80.22
2023-05-13T12:49:39.973Z,80.06
2023-05-13T12:50:39.707Z,80.11
2023-05-13T12:51:40.295Z,80.27
2023-05-13T12:52:39.654Z,80.72
2023-05-13T12:53:40.299Z,80.83
2023-05-13T12:54:39.636Z,80.83
2023-05-13T12:55:40.467Z,80.61
2023-05-13T12:56:40.110Z,80.51
2023-05-13T12:57:39.396Z,80.45